sensor_id;sensor_type;location;lat;lon;timestamp;P1;durP1;ratioP1;P2;durP2;ratioP2
15931;SDS011;8065;49.520;11.284;2022-08-27T00:02:13;12.17;;;10.37;;
15931;SDS011;8065;49.520;11.284;2022-08-27T00:04:40;12.57;;;11.27;;
15931;SDS011;8065;49.520;11.284;2022-08-27T00:07:09;11.13;;;10.03;;
15931;SDS011;8065;49.520;11.284;2022-08-27T00:09:36;14.93;;;10.73;;
15931;SDS011;8065;49.520;11.284;2022-08-27T00:12:05;13.03;;;11.63;;
15931;SDS011;8065;49.520;11.284;2022-08-27T00:14:33;13.03;;;10.80;;
15931;SDS011;8065;49.520;11.284;2022-08-27T00:17:02;12.40;;;10.67;;
15931;SDS011;8065;49.520;11.284;2022-08-27T00:19:30;11.77;;;10.30;;
15931;SDS011;8065;49.520;11.284;2022-08-27T00:21:57;12.07;;;10.47;;
15931;SDS011;8065;49.520;11.284;2022-08-27T00:24:23;11.30;;;10.20;;
15931;SDS011;8065;49.520;11.284;2022-08-27T00:26:50;11.27;;;10.10;;
15931;SDS011;8065;49.520;11.284;2022-08-27T00:29:19;11.47;;;9.73;;
15931;SDS011;8065;49.520;11.284;2022-08-27T00:31:46;11.80;;;9.70;;
15931;SDS011;8065;49.520;11.284;2022-08-27T00:34:12;12.13;;;10.40;;
15931;SDS011;8065;49.520;11.284;2022-08-27T00:36:39;10.67;;;9.57;;
15931;SDS011;8065;49.520;11.284;2022-08-27T00:39:06;10.13;;;9.13;;
15931;SDS011;8065;49.520;11.284;2022-08-27T00:41:33;11.17;;;9.97;;
15931;SDS011;8065;49.520;11.284;2022-08-27T00:44:00;13.07;;;10.03;;
15931;SDS011;8065;49.520;11.284;2022-08-27T00:46:30;12.37;;;9.97;;
15931;SDS011;8065;49.520;11.284;2022-08-27T00:49:01;10.43;;;9.30;;
15931;SDS011;8065;49.520;11.284;2022-08-27T00:51:41;12.00;;;9.23;;
15931;SDS011;8065;49.520;11.284;2022-08-27T00:54:08;12.20;;;10.27;;
15931;SDS011;8065;49.520;11.284;2022-08-27T00:56:36;11.87;;;9.57;;
15931;SDS011;8065;49.520;11.284;2022-08-27T00:59:08;10.77;;;9.67;;
15931;SDS011;8065;49.520;11.284;2022-08-27T01:01:37;11.47;;;10.43;;
15931;SDS011;8065;49.520;11.284;2022-08-27T01:04:23;13.43;;;11.03;;
15931;SDS011;8065;49.520;11.284;2022-08-27T01:06:50;11.47;;;10.23;;
15931;SDS011;8065;49.520;11.284;2022-08-27T01:09:17;11.33;;;10.13;;
15931;SDS011;8065;49.520;11.284;2022-08-27T01:11:44;12.67;;;11.07;;
15931;SDS011;8065;49.520;11.284;2022-08-27T01:14:13;14.87;;;11.40;;
15931;SDS011;8065;49.520;11.284;2022-08-27T01:16:44;13.43;;;10.90;;
15931;SDS011;8065;49.520;11.284;2022-08-27T01:19:16;12.50;;;11.20;;
15931;SDS011;8065;49.520;11.284;2022-08-27T01:21:48;11.77;;;10.57;;
15931;SDS011;8065;49.520;11.284;2022-08-27T01:24:33;11.03;;;9.60;;
15931;SDS011;8065;49.520;11.284;2022-08-27T01:27:02;10.80;;;9.70;;
15931;SDS011;8065;49.520;11.284;2022-08-27T01:29:32;9.13;;;8.33;;
15931;SDS011;8065;49.520;11.284;2022-08-27T01:32:04;9.17;;;8.27;;
15931;SDS011;8065;49.520;11.284;2022-08-27T01:34:32;10.00;;;8.00;;
15931;SDS011;8065;49.520;11.284;2022-08-27T01:36:59;10.17;;;8.20;;
15931;SDS011;8065;49.520;11.284;2022-08-27T01:39:25;9.33;;;8.53;;
15931;SDS011;8065;49.520;11.284;2022-08-27T01:41:53;10.77;;;8.27;;
15931;SDS011;8065;49.520;11.284;2022-08-27T01:44:21;10.93;;;9.83;;
15931;SDS011;8065;49.520;11.284;2022-08-27T01:46:48;10.03;;;9.00;;
15931;SDS011;8065;49.520;11.284;2022-08-27T01:49:14;10.23;;;8.90;;
15931;SDS011;8065;49.520;11.284;2022-08-27T01:51:41;10.80;;;9.27;;
15931;SDS011;8065;49.520;11.284;2022-08-27T01:54:08;9.53;;;8.60;;
15931;SDS011;8065;49.520;11.284;2022-08-27T01:56:34;10.07;;;8.90;;
15931;SDS011;8065;49.520;11.284;2022-08-27T01:59:02;9.70;;;8.80;;
15931;SDS011;8065;49.520;11.284;2022-08-27T02:01:29;9.80;;;8.73;;
15931;SDS011;8065;49.520;11.284;2022-08-27T02:03:56;9.10;;;8.03;;
15931;SDS011;8065;49.520;11.284;2022-08-27T02:06:22;10.10;;;8.60;;
15931;SDS011;8065;49.520;11.284;2022-08-27T02:08:49;10.93;;;8.10;;
15931;SDS011;8065;49.520;11.284;2022-08-27T02:11:15;9.10;;;8.13;;
15931;SDS011;8065;49.520;11.284;2022-08-27T02:13:42;9.10;;;8.20;;
15931;SDS011;8065;49.520;11.284;2022-08-27T02:16:10;11.50;;;8.73;;
15931;SDS011;8065;49.520;11.284;2022-08-27T02:18:38;9.07;;;8.23;;
15931;SDS011;8065;49.520;11.284;2022-08-27T02:21:04;10.43;;;8.30;;
15931;SDS011;8065;49.520;11.284;2022-08-27T02:23:32;8.83;;;7.93;;
15931;SDS011;8065;49.520;11.284;2022-08-27T02:25:59;10.07;;;8.40;;
15931;SDS011;8065;49.520;11.284;2022-08-27T02:28:25;10.33;;;8.13;;
15931;SDS011;8065;49.520;11.284;2022-08-27T02:30:52;11.93;;;8.30;;
15931;SDS011;8065;49.520;11.284;2022-08-27T02:33:20;9.43;;;8.47;;
15931;SDS011;8065;49.520;11.284;2022-08-27T02:35:47;8.83;;;7.93;;
15931;SDS011;8065;49.520;11.284;2022-08-27T02:38:14;10.73;;;8.37;;
15931;SDS011;8065;49.520;11.284;2022-08-27T02:40:40;10.73;;;8.77;;
15931;SDS011;8065;49.520;11.284;2022-08-27T02:43:07;10.20;;;9.27;;
15931;SDS011;8065;49.520;11.284;2022-08-27T02:45:34;10.43;;;9.43;;
15931;SDS011;8065;49.520;11.284;2022-08-27T02:48:02;9.87;;;8.87;;
15931;SDS011;8065;49.520;11.284;2022-08-27T02:50:30;9.57;;;8.67;;
15931;SDS011;8065;49.520;11.284;2022-08-27T02:52:57;9.73;;;8.67;;
15931;SDS011;8065;49.520;11.284;2022-08-27T02:55:26;10.87;;;9.23;;
15931;SDS011;8065;49.520;11.284;2022-08-27T02:57:52;13.53;;;9.23;;
15931;SDS011;8065;49.520;11.284;2022-08-27T03:00:20;10.77;;;9.67;;
15931;SDS011;8065;49.520;11.284;2022-08-27T03:02:48;9.87;;;8.97;;
15931;SDS011;8065;49.520;11.284;2022-08-27T03:05:16;10.07;;;9.07;;
15931;SDS011;8065;49.520;11.284;2022-08-27T03:07:44;11.80;;;9.10;;
15931;SDS011;8065;49.520;11.284;2022-08-27T03:10:12;12.70;;;10.57;;
15931;SDS011;8065;49.520;11.284;2022-08-27T03:12:40;10.07;;;9.00;;
15931;SDS011;8065;49.520;11.284;2022-08-27T03:15:09;12.60;;;9.90;;
15931;SDS011;8065;49.520;11.284;2022-08-27T03:17:38;11.60;;;10.40;;
15931;SDS011;8065;49.520;11.284;2022-08-27T03:20:23;9.80;;;8.87;;
15931;SDS011;8065;49.520;11.284;2022-08-27T03:22:51;12.47;;;11.07;;
15931;SDS011;8065;49.520;11.284;2022-08-27T03:25:19;12.93;;;10.43;;
15931;SDS011;8065;49.520;11.284;2022-08-27T03:27:46;14.03;;;10.60;;
15931;SDS011;8065;49.520;11.284;2022-08-27T03:30:13;11.00;;;9.90;;
15931;SDS011;8065;49.520;11.284;2022-08-27T03:32:42;12.37;;;10.80;;
15931;SDS011;8065;49.520;11.284;2022-08-27T03:35:09;14.60;;;11.27;;
15931;SDS011;8065;49.520;11.284;2022-08-27T03:37:36;11.57;;;10.30;;
15931;SDS011;8065;49.520;11.284;2022-08-27T03:40:05;12.33;;;11.00;;
15931;SDS011;8065;49.520;11.284;2022-08-27T03:42:32;15.63;;;11.63;;
15931;SDS011;8065;49.520;11.284;2022-08-27T03:44:59;13.57;;;11.43;;
15931;SDS011;8065;49.520;11.284;2022-08-27T03:47:25;11.57;;;10.40;;
15931;SDS011;8065;49.520;11.284;2022-08-27T03:49:52;13.00;;;11.70;;
15931;SDS011;8065;49.520;11.284;2022-08-27T03:52:19;14.33;;;12.20;;
15931;SDS011;8065;49.520;11.284;2022-08-27T03:54:45;11.93;;;10.13;;
15931;SDS011;8065;49.520;11.284;2022-08-27T03:57:13;14.53;;;12.30;;
15931;SDS011;8065;49.520;11.284;2022-08-27T03:59:39;15.57;;;12.70;;
15931;SDS011;8065;49.520;11.284;2022-08-27T04:02:06;13.97;;;12.10;;
15931;SDS011;8065;49.520;11.284;2022-08-27T04:04:33;14.20;;;12.43;;
15931;SDS011;8065;49.520;11.284;2022-08-27T04:06:59;14.60;;;12.30;;
15931;SDS011;8065;49.520;11.284;2022-08-27T04:09:26;15.57;;;13.20;;
15931;SDS011;8065;49.520;11.284;2022-08-27T04:11:53;15.30;;;13.70;;
15931;SDS011;8065;49.520;11.284;2022-08-27T04:14:22;18.23;;;14.97;;
15931;SDS011;8065;49.520;11.284;2022-08-27T04:16:48;18.40;;;15.97;;
15931;SDS011;8065;49.520;11.284;2022-08-27T04:19:15;15.03;;;13.43;;
15931;SDS011;8065;49.520;11.284;2022-08-27T04:21:41;20.53;;;15.87;;
15931;SDS011;8065;49.520;11.284;2022-08-27T04:24:08;16.97;;;14.30;;
15931;SDS011;8065;49.520;11.284;2022-08-27T04:26:37;17.40;;;15.30;;
15931;SDS011;8065;49.520;11.284;2022-08-27T04:29:04;16.83;;;15.07;;
15931;SDS011;8065;49.520;11.284;2022-08-27T04:31:32;15.87;;;14.20;;
15931;SDS011;8065;49.520;11.284;2022-08-27T04:33:59;16.80;;;15.03;;
15931;SDS011;8065;49.520;11.284;2022-08-27T04:36:26;17.20;;;15.27;;
15931;SDS011;8065;49.520;11.284;2022-08-27T04:38:52;15.83;;;14.33;;
15931;SDS011;8065;49.520;11.284;2022-08-27T04:41:19;16.13;;;14.23;;
15931;SDS011;8065;49.520;11.284;2022-08-27T04:43:46;18.83;;;15.07;;
15931;SDS011;8065;49.520;11.284;2022-08-27T04:46:17;16.47;;;14.73;;
15931;SDS011;8065;49.520;11.284;2022-08-27T04:48:46;16.23;;;13.07;;
15931;SDS011;8065;49.520;11.284;2022-08-27T04:51:13;14.47;;;12.97;;
15931;SDS011;8065;49.520;11.284;2022-08-27T04:53:39;14.63;;;12.97;;
15931;SDS011;8065;49.520;11.284;2022-08-27T04:56:06;15.63;;;13.87;;
15931;SDS011;8065;49.520;11.284;2022-08-27T04:58:33;18.37;;;15.73;;
15931;SDS011;8065;49.520;11.284;2022-08-27T05:00:59;20.53;;;16.90;;
15931;SDS011;8065;49.520;11.284;2022-08-27T05:03:26;17.90;;;16.00;;
15931;SDS011;8065;49.520;11.284;2022-08-27T05:05:59;19.83;;;16.27;;
15931;SDS011;8065;49.520;11.284;2022-08-27T05:08:28;18.20;;;15.27;;
15931;SDS011;8065;49.520;11.284;2022-08-27T05:10:54;18.20;;;16.20;;
15931;SDS011;8065;49.520;11.284;2022-08-27T05:13:21;21.43;;;17.93;;
15931;SDS011;8065;49.520;11.284;2022-08-27T05:15:49;18.50;;;16.43;;
15931;SDS011;8065;49.520;11.284;2022-08-27T05:18:22;16.87;;;14.97;;
15931;SDS011;8065;49.520;11.284;2022-08-27T05:20:48;16.90;;;15.10;;
15931;SDS011;8065;49.520;11.284;2022-08-27T05:23:17;18.33;;;15.27;;
15931;SDS011;8065;49.520;11.284;2022-08-27T05:25:45;16.00;;;14.50;;
15931;SDS011;8065;49.520;11.284;2022-08-27T05:28:14;14.20;;;12.80;;
15931;SDS011;8065;49.520;11.284;2022-08-27T05:30:43;13.97;;;12.57;;
15931;SDS011;8065;49.520;11.284;2022-08-27T05:33:11;15.10;;;13.53;;
15931;SDS011;8065;49.520;11.284;2022-08-27T05:35:39;13.90;;;12.30;;
15931;SDS011;8065;49.520;11.284;2022-08-27T05:38:06;14.50;;;12.60;;
15931;SDS011;8065;49.520;11.284;2022-08-27T05:40:34;14.57;;;13.03;;
15931;SDS011;8065;49.520;11.284;2022-08-27T05:43:00;14.87;;;13.27;;
15931;SDS011;8065;49.520;11.284;2022-08-27T05:45:28;15.20;;;13.60;;
15931;SDS011;8065;49.520;11.284;2022-08-27T05:47:54;14.40;;;12.90;;
15931;SDS011;8065;49.520;11.284;2022-08-27T05:50:21;15.83;;;13.23;;
15931;SDS011;8065;49.520;11.284;2022-08-27T05:52:47;15.53;;;13.33;;
15931;SDS011;8065;49.520;11.284;2022-08-27T05:55:14;15.40;;;12.97;;
15931;SDS011;8065;49.520;11.284;2022-08-27T05:57:42;17.60;;;13.27;;
15931;SDS011;8065;49.520;11.284;2022-08-27T06:00:09;12.90;;;11.70;;
15931;SDS011;8065;49.520;11.284;2022-08-27T06:02:54;14.03;;;12.47;;
15931;SDS011;8065;49.520;11.284;2022-08-27T06:05:21;13.97;;;12.47;;
15931;SDS011;8065;49.520;11.284;2022-08-27T06:07:48;15.53;;;13.60;;
15931;SDS011;8065;49.520;11.284;2022-08-27T06:10:15;15.03;;;13.43;;
15931;SDS011;8065;49.520;11.284;2022-08-27T06:12:43;16.50;;;14.37;;
15931;SDS011;8065;49.520;11.284;2022-08-27T06:15:09;15.37;;;13.47;;
15931;SDS011;8065;49.520;11.284;2022-08-27T06:17:36;14.80;;;13.20;;
15931;SDS011;8065;49.520;11.284;2022-08-27T06:20:03;15.60;;;12.60;;
15931;SDS011;8065;49.520;11.284;2022-08-27T06:22:30;16.27;;;13.37;;
15931;SDS011;8065;49.520;11.284;2022-08-27T06:24:56;14.43;;;12.93;;
15931;SDS011;8065;49.520;11.284;2022-08-27T06:27:23;16.00;;;14.30;;
15931;SDS011;8065;49.520;11.284;2022-08-27T06:29:51;15.00;;;13.53;;
15931;SDS011;8065;49.520;11.284;2022-08-27T06:32:17;17.50;;;15.00;;
15931;SDS011;8065;49.520;11.284;2022-08-27T06:34:45;14.80;;;13.13;;
15931;SDS011;8065;49.520;11.284;2022-08-27T06:37:11;13.73;;;12.27;;
15931;SDS011;8065;49.520;11.284;2022-08-27T06:39:53;14.13;;;12.63;;
15931;SDS011;8065;49.520;11.284;2022-08-27T06:49:05;19.40;;;16.67;;
15931;SDS011;8065;49.520;11.284;2022-08-27T06:51:32;21.17;;;16.70;;
15931;SDS011;8065;49.520;11.284;2022-08-27T06:54:00;18.43;;;14.73;;
15931;SDS011;8065;49.520;11.284;2022-08-27T06:56:29;14.37;;;12.87;;
15931;SDS011;8065;49.520;11.284;2022-08-27T06:58:57;14.53;;;13.03;;
15931;SDS011;8065;49.520;11.284;2022-08-27T07:01:25;15.00;;;13.40;;
15931;SDS011;8065;49.520;11.284;2022-08-27T07:03:54;13.30;;;12.00;;
15931;SDS011;8065;49.520;11.284;2022-08-27T07:06:24;13.10;;;11.73;;
15931;SDS011;8065;49.520;11.284;2022-08-27T07:08:52;11.33;;;10.23;;
15931;SDS011;8065;49.520;11.284;2022-08-27T07:11:19;9.90;;;8.90;;
15931;SDS011;8065;49.520;11.284;2022-08-27T07:13:47;10.00;;;9.00;;
15931;SDS011;8065;49.520;11.284;2022-08-27T07:16:14;10.60;;;9.50;;
15931;SDS011;8065;49.520;11.284;2022-08-27T07:18:43;9.03;;;8.13;;
15931;SDS011;8065;49.520;11.284;2022-08-27T07:21:10;7.90;;;7.20;;
15931;SDS011;8065;49.520;11.284;2022-08-27T07:23:38;7.90;;;7.10;;
15931;SDS011;8065;49.520;11.284;2022-08-27T07:26:05;8.67;;;7.87;;
15931;SDS011;8065;49.520;11.284;2022-08-27T07:28:33;7.40;;;6.70;;
15931;SDS011;8065;49.520;11.284;2022-08-27T07:30:59;9.23;;;7.40;;
15931;SDS011;8065;49.520;11.284;2022-08-27T07:33:26;9.40;;;8.43;;
15931;SDS011;8065;49.520;11.284;2022-08-27T07:35:52;10.67;;;8.37;;
15931;SDS011;8065;49.520;11.284;2022-08-27T07:38:19;11.40;;;9.83;;
15931;SDS011;8065;49.520;11.284;2022-08-27T07:40:47;10.50;;;9.30;;
15931;SDS011;8065;49.520;11.284;2022-08-27T07:43:16;11.50;;;9.50;;
15931;SDS011;8065;49.520;11.284;2022-08-27T07:46:00;12.37;;;10.67;;
15931;SDS011;8065;49.520;11.284;2022-08-27T07:48:27;12.03;;;10.83;;
15931;SDS011;8065;49.520;11.284;2022-08-27T07:50:55;10.37;;;9.47;;
15931;SDS011;8065;49.520;11.284;2022-08-27T07:53:21;14.17;;;11.90;;
15931;SDS011;8065;49.520;11.284;2022-08-27T07:55:49;12.13;;;10.50;;
15931;SDS011;8065;49.520;11.284;2022-08-27T07:58:15;13.63;;;11.27;;
15931;SDS011;8065;49.520;11.284;2022-08-27T08:00:42;13.03;;;11.53;;
15931;SDS011;8065;49.520;11.284;2022-08-27T08:03:10;12.37;;;10.57;;
15931;SDS011;8065;49.520;11.284;2022-08-27T08:05:39;13.03;;;11.50;;
15931;SDS011;8065;49.520;11.284;2022-08-27T08:08:07;12.63;;;10.87;;
15931;SDS011;8065;49.520;11.284;2022-08-27T08:10:34;11.40;;;10.20;;
15931;SDS011;8065;49.520;11.284;2022-08-27T08:13:03;11.13;;;9.70;;
15931;SDS011;8065;49.520;11.284;2022-08-27T08:15:30;11.17;;;9.27;;
15931;SDS011;8065;49.520;11.284;2022-08-27T08:17:56;10.73;;;9.73;;
15931;SDS011;8065;49.520;11.284;2022-08-27T08:20:23;10.20;;;9.10;;
15931;SDS011;8065;49.520;11.284;2022-08-27T08:22:49;10.87;;;9.77;;
15931;SDS011;8065;49.520;11.284;2022-08-27T08:25:16;10.37;;;9.30;;
15931;SDS011;8065;49.520;11.284;2022-08-27T08:27:43;10.70;;;9.17;;
15931;SDS011;8065;49.520;11.284;2022-08-27T08:30:11;11.57;;;9.10;;
15931;SDS011;8065;49.520;11.284;2022-08-27T08:32:38;10.67;;;9.57;;
15931;SDS011;8065;49.520;11.284;2022-08-27T08:35:05;14.37;;;11.07;;
15931;SDS011;8065;49.520;11.284;2022-08-27T08:37:33;11.07;;;10.07;;
15931;SDS011;8065;49.520;11.284;2022-08-27T08:40:00;10.50;;;9.40;;
15931;SDS011;8065;49.520;11.284;2022-08-27T08:42:29;9.40;;;8.50;;
15931;SDS011;8065;49.520;11.284;2022-08-27T08:45:00;12.43;;;10.60;;
15931;SDS011;8065;49.520;11.284;2022-08-27T08:47:35;11.47;;;10.30;;
15931;SDS011;8065;49.520;11.284;2022-08-27T08:50:10;9.33;;;8.37;;
15931;SDS011;8065;49.520;11.284;2022-08-27T08:52:44;11.43;;;9.50;;
15931;SDS011;8065;49.520;11.284;2022-08-27T08:55:22;9.33;;;8.33;;
15931;SDS011;8065;49.520;11.284;2022-08-27T08:58:02;8.53;;;7.73;;
15931;SDS011;8065;49.520;11.284;2022-08-27T09:00:35;9.90;;;8.30;;
15931;SDS011;8065;49.520;11.284;2022-08-27T09:03:04;8.73;;;7.83;;
15931;SDS011;8065;49.520;11.284;2022-08-27T09:05:31;9.33;;;8.23;;
15931;SDS011;8065;49.520;11.284;2022-08-27T09:08:04;9.80;;;8.80;;
15931;SDS011;8065;49.520;11.284;2022-08-27T09:10:37;9.03;;;8.13;;
15931;SDS011;8065;49.520;11.284;2022-08-27T09:13:11;10.80;;;9.50;;
15931;SDS011;8065;49.520;11.284;2022-08-27T09:15:45;9.00;;;8.17;;
15931;SDS011;8065;49.520;11.284;2022-08-27T09:18:14;7.70;;;7.07;;
15931;SDS011;8065;49.520;11.284;2022-08-27T09:20:43;8.83;;;7.93;;
15931;SDS011;8065;49.520;11.284;2022-08-27T09:23:13;8.97;;;7.50;;
15931;SDS011;8065;49.520;11.284;2022-08-27T09:25:47;10.00;;;9.03;;
15931;SDS011;8065;49.520;11.284;2022-08-27T09:28:14;8.23;;;7.43;;
15931;SDS011;8065;49.520;11.284;2022-08-27T09:31:09;12.30;;;10.07;;
15931;SDS011;8065;49.520;11.284;2022-08-27T09:33:40;10.20;;;9.27;;
15931;SDS011;8065;49.520;11.284;2022-08-27T09:36:08;12.03;;;10.20;;
15931;SDS011;8065;49.520;11.284;2022-08-27T09:38:37;11.33;;;10.00;;
15931;SDS011;8065;49.520;11.284;2022-08-27T09:41:08;12.20;;;9.70;;
15931;SDS011;8065;49.520;11.284;2022-08-27T09:43:42;12.07;;;10.50;;
15931;SDS011;8065;49.520;11.284;2022-08-27T09:46:15;10.30;;;9.20;;
15931;SDS011;8065;49.520;11.284;2022-08-27T09:48:48;11.10;;;9.67;;
15931;SDS011;8065;49.520;11.284;2022-08-27T09:51:15;9.63;;;8.67;;
15931;SDS011;8065;49.520;11.284;2022-08-27T09:53:46;9.13;;;7.30;;
15931;SDS011;8065;49.520;11.284;2022-08-27T09:56:20;9.93;;;8.10;;
15931;SDS011;8065;49.520;11.284;2022-08-27T09:58:52;10.60;;;9.17;;
15931;SDS011;8065;49.520;11.284;2022-08-27T10:01:21;10.70;;;8.37;;
15931;SDS011;8065;49.520;11.284;2022-08-27T10:04:01;8.57;;;7.77;;
15931;SDS011;8065;49.520;11.284;2022-08-27T10:06:30;9.10;;;8.20;;
15931;SDS011;8065;49.520;11.284;2022-08-27T10:08:58;10.07;;;8.30;;
15931;SDS011;8065;49.520;11.284;2022-08-27T10:11:32;10.73;;;8.80;;
15931;SDS011;8065;49.520;11.284;2022-08-27T10:14:03;9.50;;;8.50;;
15931;SDS011;8065;49.520;11.284;2022-08-27T10:16:40;9.10;;;8.27;;
15931;SDS011;8065;49.520;11.284;2022-08-27T10:19:27;10.30;;;8.23;;
15931;SDS011;8065;49.520;11.284;2022-08-27T10:22:13;9.57;;;7.50;;
15931;SDS011;8065;49.520;11.284;2022-08-27T10:24:51;7.97;;;7.07;;
15931;SDS011;8065;49.520;11.284;2022-08-27T10:27:29;10.90;;;7.93;;
15931;SDS011;8065;49.520;11.284;2022-08-27T10:30:05;6.80;;;6.20;;
15931;SDS011;8065;49.520;11.284;2022-08-27T10:32:43;8.07;;;7.27;;
15931;SDS011;8065;49.520;11.284;2022-08-27T10:35:20;9.67;;;7.93;;
15931;SDS011;8065;49.520;11.284;2022-08-27T10:37:50;7.90;;;7.10;;
15931;SDS011;8065;49.520;11.284;2022-08-27T10:40:29;8.57;;;7.63;;
15931;SDS011;8065;49.520;11.284;2022-08-27T10:43:01;9.87;;;7.50;;
15931;SDS011;8065;49.520;11.284;2022-08-27T10:45:40;8.40;;;7.33;;
15931;SDS011;8065;49.520;11.284;2022-08-27T10:48:14;9.67;;;7.43;;
15931;SDS011;8065;49.520;11.284;2022-08-27T10:50:51;7.83;;;7.03;;
15931;SDS011;8065;49.520;11.284;2022-08-27T10:53:24;8.87;;;7.97;;
15931;SDS011;8065;49.520;11.284;2022-08-27T10:55:58;11.40;;;7.97;;
15931;SDS011;8065;49.520;11.284;2022-08-27T10:58:38;9.33;;;8.03;;
15931;SDS011;8065;49.520;11.284;2022-08-27T11:01:12;9.73;;;8.07;;
15931;SDS011;8065;49.520;11.284;2022-08-27T11:03:48;8.23;;;7.40;;
15931;SDS011;8065;49.520;11.284;2022-08-27T11:06:21;7.53;;;6.43;;
15931;SDS011;8065;49.520;11.284;2022-08-27T11:08:52;8.37;;;5.77;;
15931;SDS011;8065;49.520;11.284;2022-08-27T11:11:25;7.57;;;6.80;;
15931;SDS011;8065;49.520;11.284;2022-08-27T11:13:58;6.30;;;5.80;;
15931;SDS011;8065;49.520;11.284;2022-08-27T11:16:29;7.87;;;6.57;;
15931;SDS011;8065;49.520;11.284;2022-08-27T11:19:02;7.20;;;6.30;;
15931;SDS011;8065;49.520;11.284;2022-08-27T11:21:39;6.63;;;6.07;;
15931;SDS011;8065;49.520;11.284;2022-08-27T11:24:13;6.37;;;5.77;;
15931;SDS011;8065;49.520;11.284;2022-08-27T11:26:46;7.00;;;6.30;;
15931;SDS011;8065;49.520;11.284;2022-08-27T11:29:18;8.33;;;6.50;;
15931;SDS011;8065;49.520;11.284;2022-08-27T11:31:52;7.77;;;6.83;;
15931;SDS011;8065;49.520;11.284;2022-08-27T11:34:26;7.10;;;6.30;;
15931;SDS011;8065;49.520;11.284;2022-08-27T11:37:06;6.90;;;6.17;;
15931;SDS011;8065;49.520;11.284;2022-08-27T11:39:50;6.33;;;5.80;;
15931;SDS011;8065;49.520;11.284;2022-08-27T11:42:31;7.40;;;6.10;;
15931;SDS011;8065;49.520;11.284;2022-08-27T11:45:04;6.07;;;5.57;;
15931;SDS011;8065;49.520;11.284;2022-08-27T11:47:35;10.13;;;5.70;;
15931;SDS011;8065;49.520;11.284;2022-08-27T11:50:03;6.63;;;5.50;;
15931;SDS011;8065;49.520;11.284;2022-08-27T11:52:36;5.60;;;5.10;;
15931;SDS011;8065;49.520;11.284;2022-08-27T11:55:11;5.87;;;5.47;;
15931;SDS011;8065;49.520;11.284;2022-08-27T11:57:40;5.53;;;5.10;;
15931;SDS011;8065;49.520;11.284;2022-08-27T12:00:12;5.00;;;4.60;;
15931;SDS011;8065;49.520;11.284;2022-08-27T12:02:42;4.90;;;4.50;;
15931;SDS011;8065;49.520;11.284;2022-08-27T12:05:18;5.83;;;4.10;;
15931;SDS011;8065;49.520;11.284;2022-08-27T12:07:49;4.37;;;4.03;;
15931;SDS011;8065;49.520;11.284;2022-08-27T12:10:24;3.83;;;3.53;;
15931;SDS011;8065;49.520;11.284;2022-08-27T12:12:56;3.83;;;3.53;;
15931;SDS011;8065;49.520;11.284;2022-08-27T12:15:37;3.57;;;3.33;;
15931;SDS011;8065;49.520;11.284;2022-08-27T12:18:18;4.10;;;3.70;;
15931;SDS011;8065;49.520;11.284;2022-08-27T12:21:02;4.07;;;3.67;;
15931;SDS011;8065;49.520;11.284;2022-08-27T12:23:41;3.30;;;3.10;;
15931;SDS011;8065;49.520;11.284;2022-08-27T12:26:17;3.40;;;3.10;;
15931;SDS011;8065;49.520;11.284;2022-08-27T12:29:16;3.20;;;2.80;;
15931;SDS011;8065;49.520;11.284;2022-08-27T12:31:50;2.97;;;2.67;;
15931;SDS011;8065;49.520;11.284;2022-08-27T12:34:20;3.20;;;2.90;;
15931;SDS011;8065;49.520;11.284;2022-08-27T12:36:50;3.47;;;3.03;;
15931;SDS011;8065;49.520;11.284;2022-08-27T12:39:21;4.60;;;2.83;;
15931;SDS011;8065;49.520;11.284;2022-08-27T12:41:51;3.70;;;2.87;;
15931;SDS011;8065;49.520;11.284;2022-08-27T12:44:22;2.70;;;2.50;;
15931;SDS011;8065;49.520;11.284;2022-08-27T12:46:51;2.87;;;2.67;;
15931;SDS011;8065;49.520;11.284;2022-08-27T12:49:22;3.10;;;2.80;;
15931;SDS011;8065;49.520;11.284;2022-08-27T12:51:51;2.70;;;2.50;;
15931;SDS011;8065;49.520;11.284;2022-08-27T12:54:22;2.97;;;2.77;;
15931;SDS011;8065;49.520;11.284;2022-08-27T12:56:57;3.33;;;3.07;;
15931;SDS011;8065;49.520;11.284;2022-08-27T12:59:34;3.40;;;3.20;;
15931;SDS011;8065;49.520;11.284;2022-08-27T13:02:16;3.10;;;2.90;;
15931;SDS011;8065;49.520;11.284;2022-08-27T13:04:53;3.40;;;3.20;;
15931;SDS011;8065;49.520;11.284;2022-08-27T13:07:26;3.73;;;3.30;;
15931;SDS011;8065;49.520;11.284;2022-08-27T13:09:55;3.30;;;3.10;;
15931;SDS011;8065;49.520;11.284;2022-08-27T13:12:22;5.43;;;3.03;;
15931;SDS011;8065;49.520;11.284;2022-08-27T13:14:50;4.37;;;3.37;;
15931;SDS011;8065;49.520;11.284;2022-08-27T13:17:18;3.17;;;2.97;;
15931;SDS011;8065;49.520;11.284;2022-08-27T13:19:47;3.33;;;3.13;;
15931;SDS011;8065;49.520;11.284;2022-08-27T13:22:25;4.17;;;3.23;;
15931;SDS011;8065;49.520;11.284;2022-08-27T13:24:57;3.60;;;3.30;;
15931;SDS011;8065;49.520;11.284;2022-08-27T13:27:25;3.80;;;3.50;;
15931;SDS011;8065;49.520;11.284;2022-08-27T13:29:53;3.97;;;3.63;;
15931;SDS011;8065;49.520;11.284;2022-08-27T13:32:22;3.93;;;3.63;;
15931;SDS011;8065;49.520;11.284;2022-08-27T13:34:52;3.80;;;3.43;;
15931;SDS011;8065;49.520;11.284;2022-08-27T13:37:20;3.37;;;3.07;;
15931;SDS011;8065;49.520;11.284;2022-08-27T13:39:51;3.30;;;3.00;;
15931;SDS011;8065;49.520;11.284;2022-08-27T13:42:20;3.57;;;3.30;;
15931;SDS011;8065;49.520;11.284;2022-08-27T13:44:48;3.23;;;3.00;;
15931;SDS011;8065;49.520;11.284;2022-08-27T13:47:18;3.53;;;3.20;;
15931;SDS011;8065;49.520;11.284;2022-08-27T13:49:47;3.97;;;3.30;;
15931;SDS011;8065;49.520;11.284;2022-08-27T13:52:23;3.47;;;3.17;;
15931;SDS011;8065;49.520;11.284;2022-08-27T13:54:55;4.07;;;3.20;;
15931;SDS011;8065;49.520;11.284;2022-08-27T13:57:26;3.77;;;3.47;;
15931;SDS011;8065;49.520;11.284;2022-08-27T13:59:55;3.90;;;3.13;;
15931;SDS011;8065;49.520;11.284;2022-08-27T14:02:32;3.33;;;3.13;;
15931;SDS011;8065;49.520;11.284;2022-08-27T14:05:05;3.43;;;3.20;;
15931;SDS011;8065;49.520;11.284;2022-08-27T14:07:36;3.40;;;3.20;;
15931;SDS011;8065;49.520;11.284;2022-08-27T14:10:07;3.47;;;3.13;;
15931;SDS011;8065;49.520;11.284;2022-08-27T14:12:55;3.13;;;2.93;;
15931;SDS011;8065;49.520;11.284;2022-08-27T14:15:25;2.80;;;2.60;;
15931;SDS011;8065;49.520;11.284;2022-08-27T14:17:56;2.67;;;2.47;;
15931;SDS011;8065;49.520;11.284;2022-08-27T14:20:23;3.27;;;2.93;;
15931;SDS011;8065;49.520;11.284;2022-08-27T14:22:50;3.20;;;2.90;;
15931;SDS011;8065;49.520;11.284;2022-08-27T14:25:17;3.07;;;2.87;;
15931;SDS011;8065;49.520;11.284;2022-08-27T14:27:44;3.70;;;3.40;;
15931;SDS011;8065;49.520;11.284;2022-08-27T14:30:14;2.43;;;2.17;;
15931;SDS011;8065;49.520;11.284;2022-08-27T14:32:43;2.83;;;2.37;;
15931;SDS011;8065;49.520;11.284;2022-08-27T14:35:13;2.73;;;2.47;;
15931;SDS011;8065;49.520;11.284;2022-08-27T14:37:41;3.47;;;2.40;;
15931;SDS011;8065;49.520;11.284;2022-08-27T14:40:10;5.23;;;2.10;;
15931;SDS011;8065;49.520;11.284;2022-08-27T14:42:37;4.10;;;1.97;;
15931;SDS011;8065;49.520;11.284;2022-08-27T14:45:05;1.90;;;1.80;;
15931;SDS011;8065;49.520;11.284;2022-08-27T14:47:33;2.20;;;2.10;;
15931;SDS011;8065;49.520;11.284;2022-08-27T14:50:02;2.30;;;2.10;;
15931;SDS011;8065;49.520;11.284;2022-08-27T14:52:29;2.13;;;2.03;;
15931;SDS011;8065;49.520;11.284;2022-08-27T14:54:55;2.50;;;2.30;;
15931;SDS011;8065;49.520;11.284;2022-08-27T14:57:22;2.33;;;2.23;;
15931;SDS011;8065;49.520;11.284;2022-08-27T14:59:48;3.27;;;2.00;;